Startpagina
METAR-TAF:

METAR-TAF

Vliegvelden :

Ouagadougou, Burkina Faso

Luchthaven Ouagadougou Internationaal

breedte: 12-21N, lengte: 001-31W, hoogte: 316 m

Actueel weer

Dit bericht is 48 minuten geleden gemaakt, om 03:00 UTC
Wind 7 kt uit het noordnoordoosten, variërend tussen het noorden en het oostnoordoosten
Temperatuur 26°C
Vochtigheid 24%
Druk 1012 hPa
Zicht: 8000 m

METAR: DFFD 220300Z 03007KT 360V060 8000 NSC 26/04 Q1012 TEMPO 4000 HZ

Tijdstip: 03:48 (03:48 UTC)

Verwachting

Dit bericht is 4 uur en het 48 minuten geleden gemaakt, om 23:00 UTC
Verwachting geldig van 22 om 00 UTC tot 23 om 06 UTC
Wind 8 kt uit het noordnoordoosten
Zicht: 8000 m
Tijdelijke
van 22 om 06 UTC tot 22 om 10 UTC
Zicht: 3500 m
Heiigheid
Tijdelijke
van 22 om 17 UTC tot 22 om 20 UTC
Zicht: 4000 m
Heiigheid

TAF: DFFD 212300Z 2200/2306 03008KT 8000 NSC TEMPO 2206/2210 3500 HZ TEMPO 2217/2220 4000 HZ

Waarnemingen en weersverwachtingen van meer dan 4000 vliegvelden (METAR en TAF).

De beschikbare stations zijn de gele en rode punten op de kaart.

Ga met uw muis naar het station om de naam te zien.

Klik dan om waarnemingen en weersverwachtingen te zien.

kaart wijzigen: klik op de groene knoppen met een zwart kruis om in te zoomen, op de groene knop met een streepje om uit te zoomen of op de groene pijlen voor aangrenzende kaarten.


METAR-TAF: